createdAt,value
2019-03-10T00:02:20.308Z,2.20
2019-03-10T00:04:51.492Z,2.07
2019-03-10T00:07:21.309Z,1.77
2019-03-10T00:09:50.409Z,2.20
2019-03-10T00:12:20.987Z,2.00
2019-03-10T00:14:51.441Z,1.57
2019-03-10T00:17:21.833Z,2.30
2019-03-10T00:19:51.648Z,1.83
2019-03-10T00:22:22.563Z,2.07
2019-03-10T00:24:54.734Z,2.17
2019-03-10T00:27:23.974Z,2.27
2019-03-10T00:29:54.373Z,2.03
2019-03-10T00:32:23.408Z,1.90
2019-03-10T00:34:52.578Z,1.80
2019-03-10T00:37:21.815Z,2.20
2019-03-10T00:42:09.057Z,2.00
2019-03-10T00:44:58.302Z,2.07
2019-03-10T00:49:50.680Z,1.90
2019-03-10T00:52:29.010Z,2.30
2019-03-10T00:54:59.932Z,1.60
2019-03-10T00:57:29.431Z,2.30
2019-03-10T01:00:00.535Z,1.90
2019-03-10T01:02:28.849Z,2.30
2019-03-10T01:04:57.752Z,2.20
2019-03-10T01:07:26.927Z,1.97
2019-03-10T01:09:56.136Z,2.20
2019-03-10T01:12:25.308Z,2.70
2019-03-10T01:14:55.309Z,2.00
2019-03-10T01:17:24.895Z,2.20
2019-03-10T01:19:56.693Z,2.17
2019-03-10T01:22:27.002Z,1.87
2019-03-10T01:24:58.232Z,2.10
2019-03-10T01:27:28.423Z,2.00
2019-03-10T01:29:59.194Z,2.17
2019-03-10T01:32:41.297Z,2.67
2019-03-10T01:35:45.043Z,2.20
2019-03-10T01:38:14.896Z,2.53
2019-03-10T01:40:47.359Z,2.23
2019-03-10T01:43:16.843Z,2.17
2019-03-10T01:45:46.957Z,2.73
2019-03-10T01:48:17.687Z,2.20
2019-03-10T01:50:46.784Z,2.50
2019-03-10T01:53:25.294Z,2.23
2019-03-10T01:55:45.687Z,2.70
2019-03-10T01:58:16.529Z,2.60
2019-03-10T02:00:45.619Z,2.60
2019-03-10T02:03:15.128Z,2.50
2019-03-10T02:05:44.229Z,2.33
2019-03-10T02:08:13.328Z,2.40
2019-03-10T02:10:42.414Z,2.10
2019-03-10T02:13:11.653Z,2.63
2019-03-10T02:15:40.967Z,2.50
2019-03-10T02:18:11.342Z,2.20
2019-03-10T02:20:40.432Z,2.30
2019-03-10T02:23:09.404Z,2.10
2019-03-10T02:25:38.526Z,2.30
2019-03-10T02:28:07.632Z,2.30
2019-03-10T02:30:36.924Z,2.60
2019-03-10T02:33:06.214Z,2.93
2019-03-10T02:35:35.314Z,2.10
2019-03-10T02:38:04.420Z,2.67
2019-03-10T02:40:33.708Z,2.23
2019-03-10T02:43:04.029Z,2.63
2019-03-10T02:45:33.326Z,2.27
2019-03-10T02:48:02.856Z,2.27
2019-03-10T02:50:32.338Z,2.20
2019-03-10T02:53:01.440Z,2.20
2019-03-10T02:55:30.510Z,1.90
2019-03-10T02:57:59.828Z,2.10
2019-03-10T03:00:28.929Z,2.20
2019-03-10T03:02:58.649Z,2.37
2019-03-10T03:05:28.020Z,1.97
2019-03-10T03:07:57.244Z,1.90
2019-03-10T03:10:26.134Z,2.40
2019-03-10T03:12:55.108Z,2.77
2019-03-10T03:15:24.119Z,2.30
2019-03-10T03:17:53.627Z,2.50
2019-03-10T03:20:22.920Z,2.13
2019-03-10T03:22:52.009Z,2.00
2019-03-10T03:25:21.622Z,1.93
2019-03-10T03:27:50.512Z,2.33
2019-03-10T03:30:20.024Z,2.13
2019-03-10T03:32:50.650Z,2.37
2019-03-10T03:35:31.584Z,2.40
2019-03-10T03:38:00.710Z,2.37
2019-03-10T03:40:29.810Z,2.10
2019-03-10T03:42:58.904Z,2.30
2019-03-10T03:45:28.613Z,3.10
2019-03-10T03:47:57.708Z,2.60
2019-03-10T03:50:26.801Z,2.30
2019-03-10T03:52:55.910Z,2.50
2019-03-10T03:55:24.960Z,2.17
2019-03-10T03:57:54.096Z,2.37
2019-03-10T04:00:24.004Z,2.47
2019-03-10T04:02:53.101Z,2.03
2019-03-10T04:05:22.188Z,2.40
2019-03-10T04:07:51.289Z,2.33
2019-03-10T04:10:20.390Z,2.40
2019-03-10T04:12:49.683Z,2.40
2019-03-10T04:15:19.376Z,2.20
2019-03-10T04:17:48.484Z,2.60
2019-03-10T04:20:17.611Z,1.80
2019-03-10T04:22:48.351Z,1.90
2019-03-10T04:25:17.518Z,2.43
2019-03-10T04:27:47.610Z,2.70
2019-03-10T04:30:16.891Z,2.10
2019-03-10T04:32:45.831Z,2.20
2019-03-10T04:35:15.074Z,2.23
2019-03-10T04:37:44.018Z,2.70
2019-03-10T04:40:12.963Z,2.30
2019-03-10T04:42:43.439Z,2.80
2019-03-10T04:45:12.605Z,2.30
2019-03-10T04:47:41.523Z,2.40
2019-03-10T04:50:10.579Z,2.67
2019-03-10T04:52:39.713Z,2.40
2019-03-10T04:55:15.157Z,2.40
2019-03-10T04:58:15.357Z,2.20
2019-03-10T05:00:45.680Z,2.10
2019-03-10T05:03:15.210Z,2.23
2019-03-10T05:05:44.519Z,2.83
2019-03-10T05:08:13.421Z,2.70
2019-03-10T05:10:43.518Z,2.43
2019-03-10T05:13:13.507Z,2.60
2019-03-10T05:15:43.093Z,2.17
2019-03-10T05:18:12.240Z,2.63
2019-03-10T05:20:41.424Z,2.50
2019-03-10T05:23:37.669Z,2.10
2019-03-10T05:26:06.766Z,2.50
2019-03-10T05:28:36.874Z,2.53
2019-03-10T05:31:06.179Z,2.50
2019-03-10T05:33:35.865Z,2.50
2019-03-10T05:36:05.409Z,2.37
2019-03-10T05:38:34.875Z,2.40
2019-03-10T05:41:03.996Z,2.13
2019-03-10T05:43:33.095Z,2.37
2019-03-10T05:46:02.595Z,2.50
2019-03-10T05:48:31.660Z,2.13
2019-03-10T05:51:00.598Z,2.40
2019-03-10T05:53:29.676Z,2.57
2019-03-10T05:55:59.348Z,2.53
2019-03-10T05:58:28.890Z,2.73
2019-03-10T06:00:57.984Z,2.30
2019-03-10T06:03:27.089Z,2.27
2019-03-10T06:05:56.523Z,2.97
2019-03-10T06:08:27.879Z,2.27
2019-03-10T06:10:56.825Z,2.37
2019-03-10T06:13:26.315Z,3.13
2019-03-10T06:15:55.222Z,2.33
2019-03-10T06:18:24.640Z,2.47
2019-03-10T06:20:53.614Z,2.43
2019-03-10T06:23:23.787Z,2.83
2019-03-10T06:25:53.250Z,2.30
2019-03-10T06:28:22.538Z,2.43
2019-03-10T06:30:51.633Z,3.13
2019-03-10T06:33:21.536Z,2.60
2019-03-10T06:35:50.664Z,2.97
2019-03-10T06:38:20.309Z,2.33
2019-03-10T06:40:49.926Z,2.40
2019-03-10T06:43:18.955Z,2.10
2019-03-10T06:45:48.068Z,2.50
2019-03-10T06:48:17.345Z,2.47
2019-03-10T06:50:46.475Z,2.37
2019-03-10T06:53:15.961Z,2.27
2019-03-10T06:55:45.251Z,2.43
2019-03-10T06:58:14.521Z,3.00
2019-03-10T07:00:43.444Z,2.57
2019-03-10T07:03:12.740Z,2.40
2019-03-10T07:05:41.955Z,2.20
2019-03-10T07:08:11.544Z,2.53
2019-03-10T07:10:41.049Z,2.30
2019-03-10T07:13:10.359Z,2.20
2019-03-10T07:15:39.240Z,2.47
2019-03-10T07:18:08.479Z,2.23
2019-03-10T07:20:37.430Z,2.27
2019-03-10T07:23:07.555Z,2.83
2019-03-10T07:25:37.494Z,2.70
2019-03-10T07:28:14.104Z,2.47
2019-03-10T07:30:47.505Z,3.00
2019-03-10T07:33:21.746Z,2.87
2019-03-10T07:35:56.365Z,3.30
2019-03-10T07:38:31.449Z,4.00
2019-03-10T07:41:07.675Z,4.00
2019-03-10T07:43:43.729Z,3.47
2019-03-10T07:46:17.950Z,4.20
2019-03-10T07:48:57.478Z,3.53
2019-03-10T07:51:40.912Z,3.03
2019-03-10T07:54:18.611Z,3.50
2019-03-10T07:57:56.311Z,3.60
2019-03-10T08:01:40.311Z,3.20
2019-03-10T08:04:14.384Z,3.63
2019-03-10T08:06:50.030Z,3.57
2019-03-10T08:11:26.925Z,2.87
2019-03-10T08:14:02.161Z,3.30
2019-03-10T08:16:35.344Z,3.23
2019-03-10T08:19:10.820Z,3.50
2019-03-10T08:23:48.092Z,3.80
2019-03-10T08:26:23.545Z,3.60
2019-03-10T08:28:57.135Z,3.00
2019-03-10T08:31:32.589Z,3.30
2019-03-10T08:36:08.652Z,3.00
2019-03-10T08:38:50.645Z,3.97
2019-03-10T08:41:25.475Z,3.80
2019-03-10T08:44:05.836Z,2.83
2019-03-10T08:46:39.440Z,3.00
2019-03-10T08:49:14.276Z,3.00
2019-03-10T08:51:54.178Z,3.30
2019-03-10T08:56:30.086Z,3.00
2019-03-10T09:01:07.176Z,2.60
2019-03-10T09:03:43.855Z,3.40
2019-03-10T09:06:18.071Z,3.00
2019-03-10T09:09:11.124Z,3.00
2019-03-10T09:15:57.637Z,3.10
2019-03-10T09:18:32.074Z,2.60
2019-03-10T09:21:13.247Z,2.53
2019-03-10T09:23:51.974Z,2.70
2019-03-10T09:26:26.188Z,2.90
2019-03-10T09:29:06.549Z,4.67
2019-03-10T09:31:47.725Z,2.90
2019-03-10T09:34:21.119Z,2.87
2019-03-10T09:36:55.541Z,3.10
2019-03-10T09:39:29.735Z,2.73
2019-03-10T09:44:08.491Z,3.10
2019-03-10T09:46:41.681Z,4.20
2019-03-10T09:51:19.181Z,2.87
2019-03-10T09:54:51.565Z,3.50
2019-03-10T09:58:30.271Z,2.80
2019-03-10T10:01:11.056Z,2.47
2019-03-10T10:04:16.405Z,2.73
2019-03-10T10:06:57.996Z,3.20
2019-03-10T10:09:32.262Z,2.40
2019-03-10T10:12:13.768Z,2.37
2019-03-10T10:15:43.719Z,2.50
2019-03-10T10:18:22.406Z,2.73
2019-03-10T10:21:02.799Z,2.47
2019-03-10T10:23:43.564Z,2.50
2019-03-10T10:26:25.777Z,2.33
2019-03-10T10:29:31.525Z,2.80
2019-03-10T10:32:09.794Z,2.70
2019-03-10T10:34:47.537Z,2.80
2019-03-10T10:37:22.762Z,2.40
2019-03-10T10:39:56.165Z,2.70
2019-03-10T10:43:28.136Z,2.50
2019-03-10T10:46:03.370Z,2.73
2019-03-10T10:48:39.846Z,2.67
2019-03-10T10:51:14.031Z,2.37
2019-03-10T10:55:54.018Z,2.50
2019-03-10T10:58:29.264Z,2.80
2019-03-10T11:01:03.040Z,2.50
2019-03-10T11:03:38.092Z,3.10
2019-03-10T11:06:12.516Z,2.33
2019-03-10T11:08:46.686Z,3.90
2019-03-10T11:11:36.886Z,2.20
2019-03-10T11:14:12.167Z,2.40
2019-03-10T11:16:51.905Z,2.20
2019-03-10T11:19:26.390Z,2.63
2019-03-10T11:22:03.841Z,2.43
2019-03-10T11:24:37.628Z,2.50
2019-03-10T11:27:12.040Z,2.63
2019-03-10T11:31:49.140Z,2.20
2019-03-10T11:34:30.323Z,2.60
2019-03-10T11:39:10.926Z,2.57
2019-03-10T11:45:43.709Z,2.30
2019-03-10T11:49:15.476Z,2.57
2019-03-10T11:51:50.303Z,2.47
2019-03-10T11:54:24.688Z,2.40
2019-03-10T11:57:07.936Z,2.50
2019-03-10T11:59:42.153Z,2.70
2019-03-10T12:02:17.378Z,2.77
2019-03-10T12:05:03.046Z,2.33
2019-03-10T12:09:41.199Z,2.70
2019-03-10T12:12:10.459Z,2.30
2019-03-10T12:14:39.592Z,2.50
2019-03-10T12:17:08.665Z,2.73
2019-03-10T12:19:37.783Z,2.90
2019-03-10T12:22:07.270Z,2.23
2019-03-10T12:24:36.591Z,2.70
2019-03-10T12:27:05.866Z,3.23
2019-03-10T12:29:35.189Z,2.20
2019-03-10T12:32:05.100Z,2.60
2019-03-10T12:34:34.040Z,3.30
2019-03-10T12:37:03.325Z,2.67
2019-03-10T12:39:33.618Z,3.10
2019-03-10T12:42:03.309Z,2.70
2019-03-10T12:44:32.838Z,2.67
2019-03-10T12:47:01.929Z,3.20
2019-03-10T12:49:31.231Z,3.30
2019-03-10T12:52:00.335Z,2.40
2019-03-10T12:54:29.621Z,2.57
2019-03-10T12:56:58.918Z,2.80
2019-03-10T12:59:28.235Z,2.93
2019-03-10T13:01:57.522Z,2.87
2019-03-10T13:04:26.616Z,2.40
2019-03-10T13:06:55.878Z,2.90
2019-03-10T13:09:25.412Z,2.67
2019-03-10T13:11:54.888Z,4.00
2019-03-10T13:14:23.841Z,3.07
2019-03-10T13:16:53.657Z,2.97
2019-03-10T13:19:23.473Z,2.73
2019-03-10T13:21:52.534Z,2.80
2019-03-10T13:24:22.042Z,2.57
2019-03-10T13:26:51.279Z,2.70
2019-03-10T13:29:20.405Z,3.37
2019-03-10T13:31:50.933Z,2.60
2019-03-10T13:34:20.846Z,2.53
2019-03-10T13:36:50.162Z,2.30
2019-03-10T13:39:19.684Z,3.00
2019-03-10T13:41:49.089Z,2.30
2019-03-10T13:44:18.285Z,2.63
2019-03-10T13:46:47.772Z,2.50
2019-03-10T13:49:17.092Z,2.43
2019-03-10T13:51:46.188Z,2.90
2019-03-10T13:54:15.763Z,2.10
2019-03-10T13:56:45.001Z,2.43
2019-03-10T13:59:14.501Z,3.07
2019-03-10T14:01:43.768Z,2.30
2019-03-10T14:04:13.275Z,2.17
2019-03-10T14:06:42.390Z,2.40
2019-03-10T14:09:12.137Z,2.90
2019-03-10T14:11:41.868Z,2.50
2019-03-10T14:14:11.316Z,2.30
2019-03-10T14:16:40.410Z,2.70
2019-03-10T14:19:09.582Z,2.90
2019-03-10T14:21:39.109Z,2.50
2019-03-10T14:24:08.413Z,2.43
2019-03-10T14:26:37.718Z,2.77
2019-03-10T14:29:07.227Z,2.67
2019-03-10T14:31:36.296Z,2.30
2019-03-10T14:34:05.623Z,2.70
2019-03-10T14:36:34.669Z,2.30
2019-03-10T14:39:05.113Z,2.50
2019-03-10T14:41:34.533Z,2.43
2019-03-10T14:44:04.067Z,2.27
2019-03-10T14:46:33.138Z,2.30
2019-03-10T14:49:02.335Z,2.50
2019-03-10T14:51:31.572Z,2.30
2019-03-10T14:54:00.814Z,2.90
2019-03-10T14:56:30.277Z,2.40
2019-03-10T14:58:59.427Z,2.50
2019-03-10T15:01:28.934Z,2.77
2019-03-10T15:03:58.041Z,3.53
2019-03-10T15:06:27.137Z,2.63
2019-03-10T15:08:56.508Z,2.43
2019-03-10T15:11:25.587Z,2.03
2019-03-10T15:13:55.177Z,2.40
2019-03-10T15:16:24.333Z,2.43
2019-03-10T15:18:53.629Z,2.30
2019-03-10T15:21:22.843Z,2.30
2019-03-10T15:23:52.511Z,2.50
2019-03-10T15:26:21.567Z,2.20
2019-03-10T15:28:51.098Z,2.40
2019-03-10T15:31:21.172Z,2.20
2019-03-10T15:33:50.252Z,2.20
2019-03-10T15:36:20.799Z,2.10
2019-03-10T15:38:49.248Z,2.10
2019-03-10T15:41:21.815Z,2.40
2019-03-10T15:43:51.745Z,2.00
2019-03-10T15:46:21.355Z,2.13
2019-03-10T15:48:50.732Z,2.00
2019-03-10T15:51:21.252Z,2.10
2019-03-10T15:53:51.083Z,2.23
2019-03-10T15:56:20.648Z,2.00
2019-03-10T15:58:53.545Z,2.37
2019-03-10T16:01:22.830Z,2.20
2019-03-10T16:03:51.880Z,2.63
2019-03-10T16:06:22.345Z,2.90
2019-03-10T16:08:51.500Z,2.37
2019-03-10T16:11:21.832Z,1.90
2019-03-10T16:13:51.125Z,2.00
2019-03-10T16:16:21.561Z,2.27
2019-03-10T16:18:51.145Z,2.10
2019-03-10T16:21:20.257Z,2.00
2019-03-10T16:23:49.373Z,2.40
2019-03-10T16:26:19.502Z,2.10
2019-03-10T16:28:49.193Z,2.00
2019-03-10T16:31:18.313Z,2.40
2019-03-10T16:33:47.409Z,2.27
2019-03-10T16:36:17.288Z,2.20
2019-03-10T16:38:46.376Z,2.20
2019-03-10T16:41:15.681Z,1.93
2019-03-10T16:43:44.975Z,1.70
2019-03-10T16:46:14.279Z,1.73
2019-03-10T16:48:43.370Z,2.00
2019-03-10T16:51:12.835Z,1.70
2019-03-10T16:53:42.132Z,1.93
2019-03-10T16:56:11.243Z,2.00
2019-03-10T16:58:40.365Z,1.80
2019-03-10T17:01:09.522Z,1.70
2019-03-10T17:03:38.922Z,1.60
2019-03-10T17:06:08.059Z,1.60
2019-03-10T17:08:37.357Z,1.80
2019-03-10T17:11:06.683Z,1.80
2019-03-10T17:13:36.329Z,1.70
2019-03-10T17:16:05.566Z,1.53
2019-03-10T17:18:35.186Z,1.50
2019-03-10T17:21:04.690Z,1.60
2019-03-10T17:23:34.187Z,1.80
2019-03-10T17:26:03.354Z,1.70
2019-03-10T17:28:32.373Z,1.80
2019-03-10T17:31:01.659Z,1.40
2019-03-10T17:33:30.988Z,1.60
2019-03-10T17:36:00.886Z,1.50
2019-03-10T17:38:29.982Z,1.57
2019-03-10T17:40:59.289Z,1.53
2019-03-10T17:43:28.401Z,1.50
2019-03-10T17:45:57.883Z,1.77
2019-03-10T17:48:26.945Z,1.50
2019-03-10T17:50:56.481Z,1.73
2019-03-10T17:53:25.752Z,1.50
2019-03-10T17:55:55.094Z,1.47
2019-03-10T17:58:24.584Z,1.50
2019-03-10T18:00:53.898Z,1.43
2019-03-10T18:03:23.104Z,1.60
2019-03-10T18:05:52.538Z,1.47
2019-03-10T18:08:21.834Z,1.40
2019-03-10T18:10:50.882Z,1.40
2019-03-10T18:13:20.147Z,1.70
2019-03-10T18:15:49.337Z,2.03
2019-03-10T18:18:18.742Z,1.80
2019-03-10T18:20:48.272Z,1.50
2019-03-10T18:23:17.375Z,1.50
2019-03-10T18:25:46.679Z,1.60
2019-03-10T18:28:15.983Z,1.60
2019-03-10T18:30:45.259Z,1.60
2019-03-10T18:33:15.014Z,1.57
2019-03-10T18:35:44.705Z,1.50
2019-03-10T18:38:14.116Z,1.50
2019-03-10T18:40:43.273Z,1.57
2019-03-10T18:43:12.597Z,1.50
2019-03-10T18:45:43.145Z,1.80
2019-03-10T18:48:12.844Z,1.53
2019-03-10T18:50:41.903Z,1.77
2019-03-10T18:53:11.017Z,1.60
2019-03-10T18:55:40.122Z,1.70
2019-03-10T18:58:09.212Z,1.80
2019-03-10T19:00:38.313Z,1.30
2019-03-10T19:03:07.853Z,1.60
2019-03-10T19:05:37.749Z,1.50
2019-03-10T19:08:07.029Z,1.60
2019-03-10T19:10:36.739Z,1.60
2019-03-10T19:13:06.827Z,1.53
2019-03-10T19:15:35.927Z,1.63
2019-03-10T19:18:05.646Z,1.50
2019-03-10T19:20:34.958Z,1.37
2019-03-10T19:23:03.962Z,1.90
2019-03-10T19:25:32.979Z,1.70
2019-03-10T19:28:02.056Z,3.07
2019-03-10T19:30:31.140Z,1.60
2019-03-10T19:33:00.636Z,1.73
2019-03-10T19:35:29.687Z,1.50
2019-03-10T19:37:58.831Z,1.40
2019-03-10T19:40:28.333Z,1.60
2019-03-10T19:42:57.637Z,1.53
2019-03-10T19:45:26.709Z,1.50
2019-03-10T19:47:57.136Z,1.63
2019-03-10T19:50:27.586Z,1.53
2019-03-10T19:52:56.155Z,1.80
2019-03-10T19:55:25.383Z,1.70
2019-03-10T19:57:54.802Z,1.60
2019-03-10T20:00:25.376Z,1.40
2019-03-10T20:02:54.700Z,1.57
2019-03-10T20:05:23.758Z,1.40
2019-03-10T20:07:52.892Z,1.53
2019-03-10T20:10:22.214Z,1.93
2019-03-10T20:12:52.109Z,1.53
2019-03-10T20:15:22.018Z,1.80
2019-03-10T20:17:51.086Z,1.97
2019-03-10T20:20:20.427Z,2.20
2019-03-10T20:22:49.530Z,1.70
2019-03-10T20:25:19.154Z,1.87
2019-03-10T20:27:49.127Z,1.60
2019-03-10T20:30:18.848Z,1.70
2019-03-10T20:32:47.992Z,2.10
2019-03-10T20:35:17.429Z,2.43
2019-03-10T20:37:46.533Z,2.20
2019-03-10T20:40:16.475Z,2.00
2019-03-10T20:42:46.416Z,2.07
2019-03-10T20:45:15.634Z,1.97
2019-03-10T20:47:44.962Z,1.80
2019-03-10T20:50:14.663Z,2.10
2019-03-10T20:52:43.766Z,1.83
2019-03-10T20:55:13.244Z,2.10
2019-03-10T20:57:42.861Z,1.80
2019-03-10T21:00:14.318Z,2.40
2019-03-10T21:02:43.429Z,2.30
2019-03-10T21:05:12.918Z,2.00
2019-03-10T21:07:42.395Z,2.10
2019-03-10T21:10:13.522Z,1.83
2019-03-10T21:12:46.528Z,1.90
2019-03-10T21:15:18.244Z,1.90
2019-03-10T21:17:47.611Z,2.37
2019-03-10T21:20:18.223Z,2.30
2019-03-10T21:22:47.702Z,1.93
2019-03-10T21:25:18.805Z,2.00
2019-03-10T21:27:48.267Z,2.00
2019-03-10T21:30:19.441Z,1.73
2019-03-10T21:32:48.726Z,1.60
2019-03-10T21:35:19.687Z,1.60
2019-03-10T21:37:48.988Z,1.80
2019-03-10T21:40:20.331Z,1.70
2019-03-10T21:42:49.638Z,1.70
2019-03-10T21:45:18.800Z,7.67
2019-03-10T21:47:48.020Z,8.07
2019-03-10T21:50:18.758Z,7.00
2019-03-10T21:52:48.060Z,4.37
2019-03-10T21:55:17.227Z,4.83
2019-03-10T21:57:48.229Z,4.70
2019-03-10T22:00:17.488Z,4.13
2019-03-10T22:02:46.824Z,3.70
2019-03-10T22:05:15.904Z,3.33
2019-03-10T22:07:45.082Z,3.77
2019-03-10T22:10:26.114Z,3.87
2019-03-10T22:12:45.119Z,3.70
2019-03-10T22:15:14.174Z,3.17
2019-03-10T22:17:44.589Z,3.50
2019-03-10T22:20:14.249Z,3.37
2019-03-10T22:22:49.213Z,3.33
2019-03-10T22:25:13.462Z,3.70
2019-03-10T22:27:42.367Z,4.00
2019-03-10T22:30:13.494Z,3.10
2019-03-10T22:32:42.590Z,2.97
2019-03-10T22:35:11.888Z,2.90
2019-03-10T22:37:40.988Z,3.37
2019-03-10T22:40:10.833Z,3.00
2019-03-10T22:42:40.400Z,2.70
2019-03-10T22:45:10.418Z,2.93
2019-03-10T22:47:39.409Z,2.73
2019-03-10T22:50:09.409Z,2.70
2019-03-10T22:52:39.238Z,2.57
2019-03-10T22:55:08.950Z,2.70
2019-03-10T22:57:38.655Z,2.33
2019-03-10T23:00:12.889Z,2.80
2019-03-10T23:02:41.770Z,2.43
2019-03-10T23:05:11.061Z,2.30
2019-03-10T23:07:40.364Z,2.23
2019-03-10T23:10:10.624Z,2.50
2019-03-10T23:12:39.758Z,2.70
2019-03-10T23:15:09.591Z,2.33
2019-03-10T23:17:38.745Z,2.37
2019-03-10T23:20:09.116Z,2.57
2019-03-10T23:22:38.329Z,2.40
2019-03-10T23:25:07.922Z,2.40
2019-03-10T23:27:37.020Z,2.17
2019-03-10T23:30:06.605Z,2.47
2019-03-10T23:32:35.620Z,2.57
2019-03-10T23:35:05.334Z,2.23
2019-03-10T23:37:34.828Z,2.07
2019-03-10T23:40:03.923Z,2.33
2019-03-10T23:42:33.018Z,2.60
2019-03-10T23:45:02.370Z,2.37
2019-03-10T23:47:31.461Z,2.43
2019-03-10T23:50:00.918Z,2.03
2019-03-10T23:52:30.228Z,2.37
2019-03-10T23:54:59.409Z,2.10
2019-03-10T23:57:28.439Z,2.20
2019-03-10T23:59:57.917Z,2.17
